createdAt,value
2018-06-12T00:00:42.467Z,8.70
2018-06-12T00:03:11.819Z,9.70
2018-06-12T00:05:41.207Z,8.93
2018-06-12T00:08:10.604Z,9.57
2018-06-12T00:10:39.968Z,10.33
2018-06-12T00:13:09.308Z,9.50
2018-06-12T00:15:38.761Z,8.70
2018-06-12T00:18:08.157Z,11.20
2018-06-12T00:20:37.463Z,9.47
2018-06-12T00:23:06.809Z,9.40
2018-06-12T00:25:36.208Z,9.93
2018-06-12T00:28:05.585Z,10.40
2018-06-12T00:30:34.990Z,10.80
2018-06-12T00:33:04.378Z,10.87
2018-06-12T00:35:33.764Z,9.57
2018-06-12T00:38:02.555Z,9.57
2018-06-12T00:40:31.977Z,10.73
2018-06-12T00:43:01.348Z,10.20
2018-06-12T00:45:30.781Z,10.00
2018-06-12T00:48:00.212Z,10.33
2018-06-12T00:50:29.611Z,10.90
2018-06-12T00:52:58.966Z,11.40
2018-06-12T00:55:28.394Z,11.10
2018-06-12T00:57:57.821Z,11.10
2018-06-12T01:00:27.165Z,9.57
2018-06-12T01:02:57.756Z,11.33
2018-06-12T01:05:27.091Z,10.40
2018-06-12T01:07:56.444Z,11.20
2018-06-12T01:10:25.823Z,10.47
2018-06-12T01:12:55.177Z,11.10
2018-06-12T01:15:24.539Z,10.30
2018-06-12T01:17:53.921Z,10.07
2018-06-12T01:20:23.303Z,11.10
2018-06-12T01:22:52.090Z,10.60
2018-06-12T01:25:21.503Z,10.43
2018-06-12T01:27:50.888Z,10.93
2018-06-12T01:30:20.294Z,10.60
2018-06-12T01:32:49.776Z,9.40
2018-06-12T01:35:19.103Z,9.83
2018-06-12T01:37:47.906Z,9.97
2018-06-12T01:40:17.304Z,10.67
2018-06-12T01:42:46.658Z,11.17
2018-06-12T01:45:16.006Z,11.67
2018-06-12T01:47:45.382Z,10.10
2018-06-12T01:50:14.660Z,10.97
2018-06-12T01:52:44.259Z,10.40
2018-06-12T01:55:13.637Z,11.60
2018-06-12T01:57:43.029Z,9.40
2018-06-12T02:00:12.388Z,10.90
2018-06-12T02:02:41.779Z,11.17
2018-06-12T02:05:11.115Z,10.23
2018-06-12T02:07:40.473Z,10.60
2018-06-12T02:10:09.856Z,11.30
2018-06-12T02:12:39.195Z,8.83
2018-06-12T02:15:08.551Z,9.97
2018-06-12T02:17:38.003Z,10.10
2018-06-12T02:20:07.399Z,10.30
2018-06-12T02:22:36.887Z,9.20
2018-06-12T02:25:06.602Z,10.43
2018-06-12T02:27:35.938Z,9.77
2018-06-12T02:30:05.429Z,11.90
2018-06-12T02:32:34.791Z,10.50
2018-06-12T02:35:04.244Z,12.00
2018-06-12T02:37:33.570Z,10.23
2018-06-12T02:40:02.910Z,9.60
2018-06-12T02:42:32.266Z,10.40
2018-06-12T02:45:01.593Z,10.40
2018-06-12T02:47:31.003Z,11.00
2018-06-12T02:50:00.411Z,9.53
2018-06-12T02:52:29.835Z,9.90
2018-06-12T02:54:59.277Z,12.17
2018-06-12T02:57:28.620Z,9.80
2018-06-12T02:59:57.980Z,8.57
2018-06-12T03:02:27.349Z,9.63
2018-06-12T03:04:56.673Z,9.47
2018-06-12T03:07:25.491Z,10.10
2018-06-12T03:09:54.876Z,13.23
2018-06-12T03:12:24.226Z,14.63
2018-06-12T03:14:53.590Z,14.97
2018-06-12T03:17:22.970Z,14.13
2018-06-12T03:19:52.319Z,11.80
2018-06-12T03:22:21.785Z,12.47
2018-06-12T03:24:51.202Z,11.10
2018-06-12T03:27:20.559Z,11.83
2018-06-12T03:29:49.393Z,10.47
2018-06-12T03:32:18.830Z,12.53
2018-06-12T03:34:48.165Z,11.40
2018-06-12T03:37:16.998Z,10.57
2018-06-12T03:39:46.367Z,10.37
2018-06-12T03:42:15.152Z,10.73
2018-06-12T03:44:45.433Z,10.30
2018-06-12T03:47:14.779Z,10.60
2018-06-12T03:49:44.102Z,9.80
2018-06-12T03:52:13.718Z,9.77
2018-06-12T03:54:43.090Z,9.10
2018-06-12T03:57:12.433Z,10.43
2018-06-12T03:59:41.814Z,11.77
2018-06-12T04:02:11.188Z,10.93
2018-06-12T04:04:40.593Z,10.27
2018-06-12T04:07:09.952Z,10.47
2018-06-12T04:09:39.333Z,10.07
2018-06-12T04:12:08.641Z,9.80
2018-06-12T04:14:38.077Z,8.67
2018-06-12T04:17:08.452Z,9.00
2018-06-12T04:19:37.839Z,9.47
2018-06-12T04:22:07.283Z,8.90
2018-06-12T04:24:36.691Z,9.03
2018-06-12T04:27:06.012Z,9.37
2018-06-12T04:29:35.435Z,8.10
2018-06-12T04:32:04.910Z,9.53
2018-06-12T04:34:34.363Z,8.80
2018-06-12T04:37:03.928Z,8.47
2018-06-12T04:39:33.368Z,9.13
2018-06-12T04:42:02.742Z,8.80
2018-06-12T04:44:32.096Z,8.67
2018-06-12T04:47:01.437Z,9.50
2018-06-12T04:49:30.780Z,9.40
2018-06-12T04:52:00.178Z,8.70
2018-06-12T04:54:29.561Z,8.80
2018-06-12T04:56:58.915Z,9.47
2018-06-12T04:59:28.304Z,8.37
2018-06-12T05:01:58.735Z,7.40
2018-06-12T05:04:28.101Z,8.70
2018-06-12T05:06:57.449Z,8.90
2018-06-12T05:09:26.823Z,8.07
2018-06-12T05:11:56.608Z,9.23
2018-06-12T05:14:25.938Z,7.67
2018-06-12T05:16:55.298Z,9.20
2018-06-12T05:19:24.660Z,8.93
2018-06-12T05:21:53.963Z,8.93
2018-06-12T05:24:23.342Z,10.33
2018-06-12T05:26:52.651Z,9.57
2018-06-12T05:29:21.993Z,9.20
2018-06-12T05:31:51.364Z,8.60
2018-06-12T05:34:20.776Z,8.63
2018-06-12T05:36:50.136Z,9.20
2018-06-12T05:39:19.535Z,9.63
2018-06-12T05:41:48.964Z,9.80
2018-06-12T05:44:18.422Z,9.00
2018-06-12T05:46:47.883Z,7.77
2018-06-12T05:49:17.244Z,8.83
2018-06-12T05:51:46.612Z,8.80
2018-06-12T05:54:15.946Z,9.33
2018-06-12T05:56:45.336Z,9.53
2018-06-12T05:59:14.706Z,8.40
2018-06-12T06:01:44.035Z,8.37
2018-06-12T06:04:12.854Z,7.83
2018-06-12T06:06:42.297Z,9.43
2018-06-12T06:09:11.636Z,9.30
2018-06-12T06:11:42.378Z,9.20
2018-06-12T06:14:11.767Z,9.20
2018-06-12T06:16:41.158Z,8.70
2018-06-12T06:19:10.646Z,7.57
2018-06-12T06:21:40.038Z,7.77
2018-06-12T06:24:09.910Z,9.30
2018-06-12T06:26:39.356Z,9.50
2018-06-12T06:29:08.878Z,7.83
2018-06-12T06:31:38.270Z,8.57
2018-06-12T06:34:07.750Z,9.30
2018-06-12T06:36:37.128Z,9.07
2018-06-12T06:39:08.095Z,9.40
2018-06-12T06:41:37.467Z,9.20
2018-06-12T06:44:06.813Z,9.53
2018-06-12T06:46:36.217Z,9.53
2018-06-12T06:49:05.891Z,9.97
2018-06-12T06:51:35.260Z,8.73
2018-06-12T06:54:04.719Z,10.93
2018-06-12T06:56:34.043Z,9.60
2018-06-12T06:59:03.381Z,10.40
2018-06-12T07:01:32.823Z,11.40
2018-06-12T07:04:02.147Z,10.60
2018-06-12T07:06:31.523Z,8.70
2018-06-12T07:09:01.392Z,10.10
2018-06-12T07:11:30.749Z,11.07
2018-06-12T07:14:00.137Z,10.27
2018-06-12T07:16:29.538Z,10.17
2018-06-12T07:18:58.923Z,10.37
2018-06-12T07:21:28.312Z,11.73
2018-06-12T07:23:57.698Z,10.40
2018-06-12T07:26:27.051Z,9.87
2018-06-12T07:28:56.430Z,9.93
2018-06-12T07:31:25.885Z,10.37
2018-06-12T07:33:55.206Z,10.63
2018-06-12T07:36:24.561Z,9.40
2018-06-12T07:38:53.903Z,10.67
2018-06-12T07:41:25.544Z,9.70
2018-06-12T07:43:54.946Z,10.53
2018-06-12T07:46:24.301Z,11.13
2018-06-12T07:48:53.697Z,10.67
2018-06-12T07:51:23.099Z,10.50
2018-06-12T07:53:52.472Z,10.97
2018-06-12T07:56:21.941Z,12.00
2018-06-12T07:58:51.320Z,12.40
2018-06-12T08:01:20.730Z,11.87
2018-06-12T08:03:50.206Z,10.90
2018-06-12T08:06:19.586Z,11.07
2018-06-12T08:08:48.971Z,11.30
2018-06-12T08:11:17.787Z,11.80
2018-06-12T08:13:47.139Z,10.60
2018-06-12T08:16:16.652Z,9.90
2018-06-12T08:18:46.010Z,11.37
2018-06-12T08:21:15.381Z,10.30
2018-06-12T08:23:44.593Z,10.60
2018-06-12T08:26:14.031Z,11.30
2018-06-12T08:28:43.494Z,10.83
2018-06-12T08:31:12.895Z,10.83
2018-06-12T08:33:42.309Z,10.70
2018-06-12T08:36:11.691Z,11.40
2018-06-12T08:38:41.128Z,9.30
2018-06-12T08:41:10.460Z,10.33
2018-06-12T08:43:39.960Z,11.40
2018-06-12T08:46:09.351Z,12.10
2018-06-12T08:48:38.710Z,9.50
2018-06-12T08:51:08.181Z,10.60
2018-06-12T08:53:37.576Z,12.13
2018-06-12T08:56:06.950Z,16.37
2018-06-12T08:58:37.424Z,15.40
2018-06-12T09:01:06.422Z,15.03
2018-06-12T09:03:35.473Z,18.10
2018-06-12T09:06:04.917Z,20.23
2018-06-12T09:08:34.316Z,10.90
2018-06-12T09:11:03.129Z,14.00
2018-06-12T09:13:32.521Z,10.10
2018-06-12T09:16:01.321Z,9.40
2018-06-12T09:18:31.997Z,6.30
2018-06-12T09:21:01.342Z,6.10
2018-06-12T09:23:30.774Z,6.00
2018-06-12T09:26:00.190Z,5.83
2018-06-12T09:28:29.567Z,6.37
2018-06-12T09:30:59.096Z,5.27
2018-06-12T09:33:28.511Z,5.30
2018-06-12T09:36:02.997Z,5.00
2018-06-12T09:38:32.368Z,4.73
2018-06-12T09:41:01.746Z,5.43
2018-06-12T09:43:31.112Z,5.20
2018-06-12T09:46:00.569Z,4.80
2018-06-12T09:48:29.948Z,5.40
2018-06-12T09:50:59.364Z,4.63
2018-06-12T09:53:28.748Z,4.47
2018-06-12T09:55:58.141Z,4.83
2018-06-12T09:58:27.529Z,4.77
2018-06-12T10:01:01.966Z,5.03
2018-06-12T10:03:31.524Z,6.30
2018-06-12T10:06:00.877Z,5.50
2018-06-12T10:08:30.293Z,6.30
2018-06-12T10:10:59.691Z,6.87
2018-06-12T10:13:30.239Z,6.17
2018-06-12T10:15:59.676Z,8.90
2018-06-12T10:18:29.416Z,8.40
2018-06-12T10:20:58.997Z,6.40
2018-06-12T10:23:28.394Z,5.63
2018-06-12T10:25:58.843Z,6.93
2018-06-12T10:28:28.337Z,6.40
2018-06-12T10:30:57.728Z,5.50
2018-06-12T10:33:27.151Z,5.70
2018-06-12T10:35:56.580Z,5.50
2018-06-12T10:38:26.083Z,6.07
2018-06-12T10:40:55.560Z,5.30
2018-06-12T10:43:25.095Z,5.53
2018-06-12T10:45:54.675Z,5.23
2018-06-12T10:48:24.067Z,4.97
2018-06-12T10:50:53.435Z,5.80
2018-06-12T10:53:22.329Z,4.53
2018-06-12T10:55:51.216Z,6.20
2018-06-12T10:58:20.164Z,6.93
2018-06-12T11:00:49.591Z,5.60
2018-06-12T11:03:19.100Z,4.03
2018-06-12T11:05:48.642Z,5.00
2018-06-12T11:08:18.102Z,3.93
2018-06-12T11:10:47.539Z,3.93
2018-06-12T11:13:17.113Z,4.83
2018-06-12T11:15:46.546Z,5.10
2018-06-12T11:18:15.914Z,6.80
2018-06-12T11:20:45.343Z,6.77
2018-06-12T11:23:15.505Z,7.07
2018-06-12T11:25:44.873Z,7.63
2018-06-12T11:28:13.732Z,6.53
2018-06-12T11:30:43.148Z,6.53
2018-06-12T11:33:12.633Z,6.90
2018-06-12T11:35:42.127Z,6.33
2018-06-12T11:38:11.608Z,7.73
2018-06-12T11:40:40.961Z,6.30
2018-06-12T11:43:10.482Z,6.70
2018-06-12T11:45:39.882Z,6.70
2018-06-12T11:48:09.080Z,7.20
2018-06-12T11:50:38.518Z,6.70
2018-06-12T11:53:07.843Z,7.90
2018-06-12T11:55:37.317Z,8.07
2018-06-12T11:58:06.666Z,5.43
2018-06-12T12:00:36.329Z,6.00
2018-06-12T12:03:06.789Z,8.07
2018-06-12T12:05:36.347Z,6.93
2018-06-12T12:08:06.206Z,7.60
2018-06-12T12:10:35.608Z,7.80
2018-06-12T12:13:05.078Z,6.07
2018-06-12T12:15:34.504Z,5.47
2018-06-12T12:18:03.924Z,6.73
2018-06-12T12:20:33.363Z,5.50
2018-06-12T12:23:02.822Z,5.17
2018-06-12T12:25:32.252Z,5.90
2018-06-12T12:28:01.627Z,5.00
2018-06-12T12:30:31.109Z,4.90
2018-06-12T12:33:00.441Z,5.83
2018-06-12T12:35:29.871Z,6.47
2018-06-12T12:37:59.243Z,5.10
2018-06-12T12:40:28.631Z,5.53
2018-06-12T12:42:58.023Z,4.73
2018-06-12T12:45:27.459Z,5.00
2018-06-12T12:47:56.832Z,5.57
2018-06-12T12:50:26.190Z,5.97
2018-06-12T12:52:55.003Z,6.17
2018-06-12T12:55:24.384Z,5.80
2018-06-12T12:57:53.845Z,6.20
2018-06-12T13:00:23.178Z,6.40
2018-06-12T13:02:52.042Z,6.13
2018-06-12T13:05:21.381Z,6.57
2018-06-12T13:07:50.784Z,5.97
2018-06-12T13:10:20.182Z,6.03
2018-06-12T13:12:49.012Z,5.73
2018-06-12T13:15:18.387Z,6.13
2018-06-12T13:17:47.802Z,6.07
2018-06-12T13:20:17.260Z,6.90
2018-06-12T13:22:46.660Z,6.07
2018-06-12T13:25:16.034Z,6.27
2018-06-12T13:27:45.364Z,7.27
2018-06-12T13:30:14.789Z,6.70
2018-06-12T13:32:44.685Z,6.60
2018-06-12T13:35:14.054Z,6.93
2018-06-12T13:37:43.485Z,5.90
2018-06-12T13:40:12.928Z,5.90
2018-06-12T13:42:42.317Z,6.10
2018-06-12T13:45:11.799Z,6.30
2018-06-12T13:47:41.143Z,6.00
2018-06-12T13:50:10.604Z,5.10
2018-06-12T13:52:39.935Z,5.17
2018-06-12T13:55:09.259Z,5.70
2018-06-12T13:57:38.598Z,5.73
2018-06-12T14:00:07.968Z,5.40
2018-06-12T14:02:37.361Z,5.90
2018-06-12T14:05:06.930Z,5.63
2018-06-12T14:07:35.785Z,4.93
2018-06-12T14:10:05.261Z,6.20
2018-06-12T14:12:34.679Z,6.40
2018-06-12T14:15:04.142Z,6.57
2018-06-12T14:17:33.547Z,6.80
2018-06-12T14:20:02.944Z,5.53
2018-06-12T14:22:32.379Z,7.40
2018-06-12T14:25:01.852Z,6.13
2018-06-12T14:27:31.250Z,5.50
2018-06-12T14:30:00.184Z,5.90
2018-06-12T14:32:29.722Z,5.90
2018-06-12T14:34:59.156Z,5.37
2018-06-12T14:37:28.626Z,5.90
2018-06-12T14:39:58.100Z,6.80
2018-06-12T14:42:27.435Z,6.47
2018-06-12T14:44:56.784Z,6.87
2018-06-12T14:47:26.285Z,4.90
2018-06-12T14:49:55.686Z,5.70
2018-06-12T14:52:25.126Z,5.30
2018-06-12T14:54:54.526Z,6.70
2018-06-12T14:57:23.954Z,5.20
2018-06-12T14:59:53.328Z,5.60
2018-06-12T15:02:22.739Z,5.90
2018-06-12T15:04:52.152Z,6.00
2018-06-12T15:07:21.501Z,4.90
2018-06-12T15:09:50.803Z,6.13
2018-06-12T15:12:20.260Z,4.77
2018-06-12T15:14:49.699Z,5.67
2018-06-12T15:17:19.029Z,6.50
2018-06-12T15:19:48.406Z,5.93
2018-06-12T15:22:17.848Z,6.20
2018-06-12T15:24:47.216Z,4.70
2018-06-12T15:27:16.608Z,6.53
2018-06-12T15:29:45.922Z,5.47
2018-06-12T15:32:15.257Z,6.43
2018-06-12T15:34:45.174Z,6.00
2018-06-12T15:37:14.511Z,4.23
2018-06-12T15:39:43.864Z,5.77
2018-06-12T15:42:13.252Z,7.17
2018-06-12T15:44:42.638Z,6.30
2018-06-12T15:47:11.985Z,6.40
2018-06-12T15:49:41.341Z,5.80
2018-06-12T15:52:10.808Z,5.57
2018-06-12T15:54:40.160Z,6.13
2018-06-12T15:57:09.506Z,6.83
2018-06-12T15:59:38.977Z,7.67
2018-06-12T16:02:08.564Z,5.77
2018-06-12T16:04:37.967Z,5.30
2018-06-12T16:07:07.408Z,5.17
2018-06-12T16:09:36.799Z,5.20
2018-06-12T16:12:06.198Z,4.80
2018-06-12T16:14:35.546Z,4.77
2018-06-12T16:17:04.348Z,4.90
2018-06-12T16:19:33.759Z,5.30
2018-06-12T16:22:03.261Z,5.57
2018-06-12T16:24:33.136Z,4.73
2018-06-12T16:27:02.542Z,5.43
2018-06-12T16:29:31.837Z,5.20
2018-06-12T16:32:01.220Z,5.97
2018-06-12T16:34:30.561Z,5.50
2018-06-12T16:36:59.881Z,5.13
2018-06-12T16:39:29.217Z,5.27
2018-06-12T16:41:58.564Z,5.13
2018-06-12T16:44:27.894Z,5.40
2018-06-12T16:46:57.259Z,6.10
2018-06-12T16:49:26.018Z,5.10
2018-06-12T16:51:55.335Z,5.37
2018-06-12T16:54:24.151Z,6.20
2018-06-12T16:56:53.532Z,6.00
2018-06-12T16:59:22.343Z,5.00
2018-06-12T17:01:51.766Z,6.10
2018-06-12T17:04:21.106Z,5.70
2018-06-12T17:06:50.482Z,7.33
2018-06-12T17:09:19.887Z,8.07
2018-06-12T17:11:49.241Z,6.90
2018-06-12T17:14:18.081Z,6.77
2018-06-12T17:16:47.479Z,6.90
2018-06-12T17:19:16.924Z,7.20
2018-06-12T17:21:45.729Z,5.87
2018-06-12T17:24:15.092Z,6.53
2018-06-12T17:26:44.883Z,6.70
2018-06-12T17:29:14.218Z,5.87
2018-06-12T17:31:43.558Z,4.27
2018-06-12T17:34:12.900Z,4.40
2018-06-12T17:36:42.283Z,4.90
2018-06-12T17:39:11.625Z,6.00
2018-06-12T17:41:40.949Z,4.83
2018-06-12T17:44:11.331Z,5.30
2018-06-12T17:46:40.698Z,5.50
2018-06-12T17:49:10.026Z,4.80
2018-06-12T17:51:39.412Z,5.20
2018-06-12T17:54:08.850Z,5.43
2018-06-12T17:56:38.216Z,5.87
2018-06-12T17:59:07.617Z,4.80
2018-06-12T18:01:36.989Z,6.70
2018-06-12T18:04:06.512Z,6.07
2018-06-12T18:06:35.908Z,5.93
2018-06-12T18:09:06.334Z,6.30
2018-06-12T18:11:35.721Z,7.00
2018-06-12T18:14:05.117Z,7.73
2018-06-12T18:16:34.456Z,7.60
2018-06-12T18:19:03.882Z,9.80
2018-06-12T18:21:33.239Z,7.63
2018-06-12T18:24:02.614Z,8.97
2018-06-12T18:26:31.438Z,8.03
2018-06-12T18:29:00.771Z,9.20
2018-06-12T18:31:30.085Z,7.73
2018-06-12T18:33:59.455Z,8.67
2018-06-12T18:36:28.818Z,8.77
2018-06-12T18:38:57.623Z,8.07
2018-06-12T18:41:27.018Z,9.93
2018-06-12T18:43:56.366Z,8.73
2018-06-12T18:46:26.299Z,8.20
2018-06-12T18:48:55.644Z,8.87
2018-06-12T18:51:24.988Z,8.30
2018-06-12T18:53:54.459Z,7.97
2018-06-12T18:56:23.829Z,9.17
2018-06-12T18:58:52.583Z,8.77
2018-06-12T19:01:21.967Z,8.97
2018-06-12T19:03:51.300Z,9.10
2018-06-12T19:06:20.632Z,9.03
2018-06-12T19:08:50.028Z,8.93
2018-06-12T19:11:19.518Z,9.43
2018-06-12T19:13:48.855Z,8.43
2018-06-12T19:16:18.284Z,9.00
2018-06-12T19:18:47.630Z,10.03
2018-06-12T19:21:16.466Z,9.23
2018-06-12T19:23:45.846Z,8.17
2018-06-12T19:26:15.256Z,8.20
2018-06-12T19:28:44.589Z,9.10
2018-06-12T19:31:14.002Z,8.33
2018-06-12T19:33:43.313Z,9.30
2018-06-12T19:36:12.700Z,10.00
2018-06-12T19:38:42.039Z,9.50
2018-06-12T19:41:11.354Z,9.60
2018-06-12T19:43:40.695Z,11.60
2018-06-12T19:46:10.132Z,10.20
2018-06-12T19:48:39.504Z,10.00
2018-06-12T19:51:08.838Z,9.10
2018-06-12T19:53:38.471Z,9.30
2018-06-12T19:56:09.008Z,8.93
2018-06-12T19:58:38.612Z,8.90
2018-06-12T20:01:07.985Z,9.40
2018-06-12T20:03:37.341Z,10.00
2018-06-12T20:06:06.760Z,10.40
2018-06-12T20:08:36.168Z,11.80
2018-06-12T20:11:05.629Z,12.77
2018-06-12T20:13:35.075Z,12.47
2018-06-12T20:16:04.497Z,13.80
2018-06-12T20:18:33.458Z,11.93
2018-06-12T20:21:03.076Z,10.40
2018-06-12T20:23:32.618Z,9.50
2018-06-12T20:26:02.110Z,10.20
2018-06-12T20:28:30.965Z,9.77
2018-06-12T20:31:00.344Z,9.60
2018-06-12T20:33:29.881Z,10.40
2018-06-12T20:35:59.473Z,10.20
2018-06-12T20:38:28.878Z,12.03
2018-06-12T20:40:58.825Z,10.13
2018-06-12T20:43:27.874Z,10.63
2018-06-12T20:45:57.388Z,10.97
2018-06-12T20:51:09.486Z,10.80
2018-06-12T20:53:43.858Z,10.50
2018-06-12T20:56:13.222Z,10.70
2018-06-12T20:58:42.654Z,10.10
2018-06-12T21:01:12.084Z,11.03
2018-06-12T21:03:41.429Z,12.10
2018-06-12T21:06:10.796Z,9.23
2018-06-12T21:08:45.660Z,10.00
2018-06-12T21:11:15.314Z,9.37
2018-06-12T21:13:44.976Z,9.60
2018-06-12T21:16:15.705Z,11.23
2018-06-12T21:18:45.288Z,11.50
2018-06-12T21:21:14.729Z,12.83
2018-06-12T21:23:44.307Z,13.00
2018-06-12T21:26:13.689Z,10.60
2018-06-12T21:28:43.239Z,9.40
2018-06-12T21:31:12.653Z,10.13
2018-06-12T21:33:42.025Z,9.83
2018-06-12T21:36:11.467Z,10.27
2018-06-12T21:38:40.922Z,11.67
2018-06-12T21:41:10.336Z,10.63
2018-06-12T21:43:39.815Z,11.23
2018-06-12T21:46:09.207Z,9.23
2018-06-12T21:48:38.687Z,11.03
2018-06-12T21:51:07.555Z,9.20
2018-06-12T21:53:37.061Z,9.13
2018-06-12T21:56:06.665Z,10.30
2018-06-12T21:58:36.287Z,9.13
2018-06-12T22:01:06.022Z,9.03
2018-06-12T22:03:35.797Z,9.17
2018-06-12T22:06:05.402Z,10.23
2018-06-12T22:08:34.777Z,8.70
2018-06-12T22:11:04.144Z,9.90
2018-06-12T22:13:34.792Z,9.27
2018-06-12T22:16:04.200Z,11.53
2018-06-12T22:18:33.581Z,8.60
2018-06-12T22:21:02.955Z,9.33
2018-06-12T22:23:32.370Z,9.37
2018-06-12T22:26:01.746Z,9.60
2018-06-12T22:28:31.192Z,10.00
2018-06-12T22:31:00.590Z,9.40
2018-06-12T22:33:29.980Z,9.30
2018-06-12T22:35:59.342Z,10.07
2018-06-12T22:38:28.696Z,9.80
2018-06-12T22:40:57.562Z,11.10
2018-06-12T22:43:26.937Z,9.60
2018-06-12T22:45:56.354Z,9.13
2018-06-12T22:48:25.741Z,9.97
2018-06-12T22:50:55.096Z,9.20
2018-06-12T22:53:24.595Z,9.40
2018-06-12T22:55:53.482Z,9.40
2018-06-12T22:58:22.267Z,9.63
2018-06-12T23:00:51.679Z,8.40
2018-06-12T23:03:21.038Z,10.10
2018-06-12T23:05:50.431Z,8.47
2018-06-12T23:08:19.804Z,9.50
2018-06-12T23:10:49.132Z,7.50
2018-06-12T23:13:18.466Z,10.13
2018-06-12T23:15:47.941Z,9.87
2018-06-12T23:18:17.384Z,9.57
2018-06-12T23:21:01.339Z,9.33
2018-06-12T23:23:30.698Z,11.07
2018-06-12T23:26:00.092Z,8.73
2018-06-12T23:28:29.450Z,9.20
2018-06-12T23:30:58.779Z,9.90
2018-06-12T23:33:28.117Z,9.73
2018-06-12T23:35:57.524Z,9.60
2018-06-12T23:38:26.854Z,8.63
2018-06-12T23:40:56.218Z,9.40
2018-06-12T23:43:25.616Z,10.57
2018-06-12T23:45:55.380Z,10.00
2018-06-12T23:48:24.816Z,9.60
2018-06-12T23:50:54.164Z,10.50
2018-06-12T23:53:23.500Z,11.53
2018-06-12T23:55:52.826Z,10.70
2018-06-12T23:58:22.200Z,10.93
